createdAt,value
2022-12-19T00:00:08.153Z,42.60
2022-12-19T00:03:17.779Z,34.33
2022-12-19T00:06:21.836Z,42.50
2022-12-19T00:09:24.777Z,39.33
2022-12-19T00:12:29.288Z,32.93
2022-12-19T00:15:34.111Z,32.43
2022-12-19T00:18:37.430Z,34.20
2022-12-19T00:21:40.702Z,34.17
2022-12-19T00:24:43.705Z,34.40
2022-12-19T00:27:48.142Z,34.77
2022-12-19T00:30:51.696Z,31.10
2022-12-19T00:33:57.979Z,32.43
2022-12-19T00:37:00.875Z,34.87
2022-12-19T00:40:04.085Z,35.50
2022-12-19T00:43:08.428Z,32.20
2022-12-19T00:46:13.104Z,31.87
2022-12-19T00:49:16.300Z,29.83
2022-12-19T00:52:19.274Z,33.70
2022-12-19T00:55:22.210Z,33.10
2022-12-19T00:58:26.566Z,34.47
2022-12-19T01:01:33.231Z,30.03
2022-12-19T01:04:41.375Z,35.80
2022-12-19T01:07:44.882Z,30.37
2022-12-19T01:10:48.272Z,32.63
2022-12-19T01:13:51.578Z,31.40
2022-12-19T01:16:54.524Z,34.07
2022-12-19T01:19:57.587Z,30.73
2022-12-19T01:23:00.875Z,33.57
2022-12-19T01:26:04.035Z,28.00
2022-12-19T01:29:08.557Z,30.87
2022-12-19T01:32:11.531Z,28.93
2022-12-19T01:35:21.094Z,34.33
2022-12-19T01:38:24.795Z,32.60
2022-12-19T01:41:27.766Z,32.57
2022-12-19T01:44:32.784Z,27.80
2022-12-19T01:47:41.129Z,32.30
2022-12-19T01:51:00.645Z,30.43
2022-12-19T01:54:08.247Z,27.57
2022-12-19T01:57:14.797Z,31.50
2022-12-19T02:00:19.296Z,33.43
2022-12-19T02:03:29.691Z,37.30
2022-12-19T02:06:34.905Z,33.13
2022-12-19T02:09:38.393Z,30.87
2022-12-19T02:12:44.359Z,28.90
2022-12-19T02:15:57.258Z,31.07
2022-12-19T02:19:10.081Z,29.13
2022-12-19T02:22:23.659Z,30.50
2022-12-19T02:25:57.412Z,31.13
2022-12-19T02:29:24.845Z,28.77
2022-12-19T02:32:34.731Z,33.93
2022-12-19T02:35:45.410Z,29.80
2022-12-19T02:38:54.967Z,31.40
2022-12-19T02:41:59.540Z,27.83
2022-12-19T02:45:06.308Z,32.60
2022-12-19T02:48:13.053Z,33.80
2022-12-19T02:51:19.359Z,34.03
2022-12-19T02:54:22.654Z,31.00
2022-12-19T02:57:31.039Z,32.07
2022-12-19T03:00:42.251Z,35.47
2022-12-19T03:03:56.366Z,33.97
2022-12-19T03:07:04.097Z,33.13
2022-12-19T03:10:17.461Z,32.30
2022-12-19T03:13:27.202Z,31.57
2022-12-19T03:16:30.267Z,32.40
2022-12-19T03:19:35.223Z,31.47
2022-12-19T03:22:38.296Z,36.23
2022-12-19T03:25:44.309Z,33.73
2022-12-19T03:28:51.462Z,34.20
2022-12-19T03:31:56.386Z,40.60
2022-12-19T03:35:06.068Z,31.90
2022-12-19T03:38:11.182Z,31.13
2022-12-19T03:41:17.152Z,36.17
2022-12-19T03:44:22.146Z,37.57
2022-12-19T03:47:31.489Z,39.57
2022-12-19T03:50:49.483Z,35.27
2022-12-19T03:54:00.310Z,31.00
2022-12-19T03:57:08.396Z,38.67
2022-12-19T04:00:14.565Z,37.83
2022-12-19T04:03:19.386Z,36.97
2022-12-19T04:06:24.689Z,37.83
2022-12-19T04:09:27.691Z,34.70
2022-12-19T04:12:37.685Z,32.20
2022-12-19T04:15:46.500Z,33.07
2022-12-19T04:18:54.027Z,34.93
2022-12-19T04:22:07.684Z,39.13
2022-12-19T04:25:14.497Z,35.63
2022-12-19T04:28:22.161Z,35.87
2022-12-19T04:31:25.754Z,36.50
2022-12-19T04:34:28.732Z,37.67
2022-12-19T04:37:33.283Z,36.63
2022-12-19T04:40:40.891Z,35.43
2022-12-19T04:43:44.347Z,38.27
2022-12-19T04:46:47.415Z,39.10
2022-12-19T04:49:50.391Z,36.87
2022-12-19T04:52:57.199Z,36.80
2022-12-19T04:56:03.474Z,37.83
2022-12-19T04:59:06.404Z,36.83
2022-12-19T05:02:09.338Z,38.83
2022-12-19T05:05:12.464Z,37.80
2022-12-19T05:08:16.751Z,36.20
2022-12-19T05:11:20.200Z,34.97
2022-12-19T05:14:23.356Z,37.03
2022-12-19T05:17:26.243Z,38.63
2022-12-19T05:20:29.229Z,40.03
2022-12-19T05:23:33.566Z,34.67
2022-12-19T05:26:36.500Z,35.27
2022-12-19T05:29:40.526Z,35.13
2022-12-19T05:32:43.440Z,35.10
2022-12-19T05:35:46.416Z,38.97
2022-12-19T05:38:50.763Z,36.83
2022-12-19T05:41:54.196Z,32.23
2022-12-19T05:44:57.881Z,38.40
2022-12-19T05:48:01.593Z,32.73
2022-12-19T05:51:05.157Z,39.13
2022-12-19T05:54:09.421Z,36.07
2022-12-19T05:57:12.545Z,38.13
2022-12-19T06:00:16.955Z,37.90
2022-12-19T06:03:19.981Z,35.57
2022-12-19T06:06:26.991Z,38.83
2022-12-19T06:09:31.292Z,34.77
2022-12-19T06:12:34.397Z,34.43
2022-12-19T06:15:37.289Z,34.17
2022-12-19T06:18:44.545Z,36.73
2022-12-19T06:21:48.770Z,39.67
2022-12-19T06:24:53.128Z,41.10
2022-12-19T06:27:56.107Z,30.90
2022-12-19T06:30:59.770Z,35.53
2022-12-19T06:34:02.739Z,34.80
2022-12-19T06:37:08.279Z,34.83
2022-12-19T06:40:33.901Z,35.27
2022-12-19T06:43:35.898Z,33.03
2022-12-19T06:46:39.010Z,32.17
2022-12-19T06:49:41.894Z,38.67
2022-12-19T06:52:45.200Z,32.77
2022-12-19T06:55:51.301Z,32.37
2022-12-19T06:58:54.299Z,37.97
2022-12-19T07:02:01.808Z,36.50
2022-12-19T07:05:08.943Z,38.83
2022-12-19T07:08:12.600Z,30.90
2022-12-19T07:11:16.986Z,33.63
2022-12-19T07:14:20.181Z,30.70
2022-12-19T07:17:25.385Z,36.30
2022-12-19T07:20:30.258Z,35.13
2022-12-19T07:23:33.400Z,31.40
2022-12-19T07:26:37.870Z,29.70
2022-12-19T07:29:40.904Z,33.77
2022-12-19T07:32:43.851Z,38.70
2022-12-19T07:35:46.864Z,30.67
2022-12-19T07:38:50.613Z,35.23
2022-12-19T07:41:54.927Z,29.83
2022-12-19T07:44:57.887Z,32.17
2022-12-19T07:48:01.999Z,35.13
2022-12-19T07:51:05.394Z,32.37
2022-12-19T07:54:08.457Z,28.17
2022-12-19T07:57:12.714Z,30.83
2022-12-19T08:00:16.247Z,33.10
2022-12-19T08:03:19.404Z,28.93
2022-12-19T08:06:23.374Z,32.10
2022-12-19T08:09:27.730Z,33.50
2022-12-19T08:12:33.778Z,32.87
2022-12-19T08:15:36.861Z,33.87
2022-12-19T08:18:40.365Z,33.00
2022-12-19T08:21:43.330Z,30.83
2022-12-19T08:24:46.424Z,32.70
2022-12-19T08:27:50.728Z,35.00
2022-12-19T08:30:53.691Z,31.07
2022-12-19T08:33:57.979Z,33.80
2022-12-19T08:37:00.934Z,29.07
2022-12-19T08:40:04.202Z,31.43
2022-12-19T08:43:08.539Z,32.67
2022-12-19T08:46:11.578Z,27.10
2022-12-19T08:49:14.561Z,31.47
2022-12-19T08:52:18.695Z,25.70
2022-12-19T08:55:21.630Z,30.37
2022-12-19T08:58:26.661Z,29.93
2022-12-19T09:01:29.941Z,33.53
2022-12-19T09:05:57.963Z,31.47
2022-12-19T09:07:56.296Z,29.73
2022-12-19T09:11:00.683Z,32.13
2022-12-19T09:14:05.890Z,29.63
2022-12-19T09:17:09.147Z,36.67
2022-12-19T09:20:14.853Z,30.57
2022-12-19T09:23:21.369Z,34.87
2022-12-19T09:26:26.257Z,31.90
2022-12-19T09:29:35.365Z,32.77
2022-12-19T09:32:38.788Z,33.13
2022-12-19T09:35:51.263Z,36.47
2022-12-19T09:38:56.010Z,29.70
2022-12-19T09:42:16.074Z,32.10
2022-12-19T09:45:34.179Z,29.77
2022-12-19T09:48:37.097Z,30.73
2022-12-19T09:51:45.311Z,34.60
2022-12-19T09:54:52.561Z,35.73
2022-12-19T09:58:04.776Z,32.87
2022-12-19T10:01:19.616Z,30.73
2022-12-19T10:04:26.145Z,35.53
2022-12-19T10:08:01.378Z,32.13
2022-12-19T10:12:34.445Z,32.40
2022-12-19T10:14:41.783Z,28.10
2022-12-19T10:18:10.155Z,30.97
2022-12-19T10:21:42.855Z,28.13
2022-12-19T10:25:09.499Z,30.63
2022-12-19T10:28:25.280Z,32.60
2022-12-19T10:31:35.017Z,30.97
2022-12-19T10:34:43.316Z,24.47
2022-12-19T10:37:52.172Z,34.20
2022-12-19T10:41:05.138Z,27.03
2022-12-19T10:44:10.555Z,47.70
2022-12-19T10:47:17.504Z,34.97
2022-12-19T10:50:25.324Z,28.10
2022-12-19T10:53:29.950Z,29.93
2022-12-19T10:56:37.806Z,36.83
2022-12-19T10:59:41.018Z,33.53
2022-12-19T11:02:46.193Z,30.00
2022-12-19T11:05:58.234Z,29.93
2022-12-19T11:09:21.166Z,32.80
2022-12-19T11:16:05.481Z,28.10
2022-12-19T11:20:55.429Z,35.50
2022-12-19T11:29:16.836Z,28.00
2022-12-19T11:29:38.941Z,33.33
2022-12-19T11:29:39.244Z,29.90
2022-12-19T11:33:17.857Z,32.37
2022-12-19T11:36:31.838Z,31.57
2022-12-19T11:39:42.873Z,30.77
2022-12-19T11:43:25.601Z,29.77
2022-12-19T11:46:27.041Z,30.53
2022-12-19T11:49:34.994Z,32.67
2022-12-19T11:56:16.621Z,36.37
2022-12-19T11:59:21.610Z,33.77
2022-12-19T12:02:51.382Z,30.30
2022-12-19T12:05:56.433Z,30.63
2022-12-19T12:10:48.731Z,30.57
2022-12-19T12:18:34.201Z,33.63
2022-12-19T12:24:53.613Z,30.53
2022-12-19T12:31:28.730Z,31.30
2022-12-19T12:31:49.211Z,32.77
2022-12-19T12:31:53.911Z,33.07
2022-12-19T12:32:06.049Z,30.47
2022-12-19T12:35:55.110Z,37.33
2022-12-19T12:41:05.912Z,31.13
2022-12-19T12:44:10.586Z,33.67
2022-12-19T12:47:20.362Z,28.27
2022-12-19T12:50:26.086Z,34.90
2022-12-19T12:53:33.746Z,29.20
2022-12-19T12:56:38.099Z,30.67
2022-12-19T12:59:46.962Z,36.60
2022-12-19T13:02:55.867Z,34.23
2022-12-19T13:06:06.382Z,34.17
2022-12-19T13:09:23.084Z,29.93
2022-12-19T13:12:46.138Z,31.37
2022-12-19T13:15:49.059Z,35.50
2022-12-19T13:19:05.248Z,30.10
2022-12-19T13:22:17.789Z,32.20
2022-12-19T13:25:49.048Z,35.73
2022-12-19T13:28:52.107Z,36.00
2022-12-19T13:32:13.492Z,34.00
2022-12-19T13:38:05.403Z,32.73
2022-12-19T13:39:50.575Z,32.33
2022-12-19T13:42:43.593Z,32.63
2022-12-19T13:45:52.032Z,37.63
2022-12-19T13:49:03.007Z,32.47
2022-12-19T13:52:11.275Z,35.33
2022-12-19T13:55:15.312Z,41.63
2022-12-19T13:58:29.286Z,34.50
2022-12-19T14:01:35.416Z,43.87
2022-12-19T14:04:42.018Z,42.63
2022-12-19T14:07:47.943Z,34.83
2022-12-19T14:11:27.405Z,36.33
2022-12-19T14:14:35.156Z,40.63
2022-12-19T14:17:38.091Z,42.03
2022-12-19T14:22:04.278Z,39.37
2022-12-19T14:24:13.001Z,42.90
2022-12-19T14:28:25.746Z,44.30
2022-12-19T14:30:44.227Z,47.30
2022-12-19T14:38:03.858Z,38.57
2022-12-19T14:41:09.308Z,40.10
2022-12-19T14:52:08.423Z,41.47
2022-12-19T14:54:08.509Z,42.77
2022-12-19T14:54:28.080Z,42.63
2022-12-19T14:58:52.271Z,47.60
2022-12-19T15:01:24.161Z,46.00
2022-12-19T15:04:48.560Z,41.40
2022-12-19T15:07:58.588Z,44.87
2022-12-19T15:11:44.480Z,46.03
2022-12-19T15:14:59.085Z,47.63
2022-12-19T15:18:17.505Z,44.03
2022-12-19T15:21:20.474Z,46.13
2022-12-19T15:24:23.375Z,44.17
2022-12-19T15:27:27.160Z,45.50
2022-12-19T15:30:34.406Z,41.07
2022-12-19T15:33:44.145Z,50.13
2022-12-19T15:37:00.374Z,47.97
2022-12-19T15:40:03.306Z,50.63
2022-12-19T15:43:06.708Z,49.60
2022-12-19T15:46:13.292Z,47.67
2022-12-19T15:49:17.416Z,51.80
2022-12-19T15:52:22.025Z,47.17
2022-12-19T15:55:28.382Z,55.00
2022-12-19T15:58:31.417Z,46.30
2022-12-19T16:01:35.800Z,48.90
2022-12-19T16:04:38.973Z,47.73
2022-12-19T16:07:42.144Z,48.00
2022-12-19T16:10:46.848Z,50.80
2022-12-19T16:13:53.517Z,45.73
2022-12-19T16:16:57.797Z,51.03
2022-12-19T16:20:00.796Z,50.17
2022-12-19T16:23:03.787Z,46.17
2022-12-19T16:26:17.682Z,50.50
2022-12-19T16:29:21.886Z,50.23
2022-12-19T16:32:26.161Z,49.87
2022-12-19T16:36:02.562Z,49.90
2022-12-19T16:38:53.299Z,47.50
2022-12-19T16:41:56.206Z,47.27
2022-12-19T16:44:59.266Z,43.77
2022-12-19T16:48:03.559Z,49.20
2022-12-19T16:51:06.588Z,51.13
2022-12-19T16:54:12.162Z,48.00
2022-12-19T16:57:21.006Z,44.70
2022-12-19T17:00:24.853Z,47.60
2022-12-19T17:03:33.556Z,52.10
2022-12-19T17:06:36.626Z,49.23
2022-12-19T17:09:39.543Z,50.80
2022-12-19T17:12:43.806Z,50.77
2022-12-19T17:15:52.608Z,48.30
2022-12-19T17:19:01.115Z,51.63
2022-12-19T17:22:04.241Z,47.50
2022-12-19T17:25:20.436Z,41.03
2022-12-19T17:28:23.646Z,48.90
2022-12-19T17:31:29.023Z,47.00
2022-12-19T17:34:34.782Z,48.17
2022-12-19T17:37:37.766Z,46.30
2022-12-19T17:40:41.108Z,45.97
2022-12-19T17:43:44.155Z,47.67
2022-12-19T17:46:48.492Z,43.00
2022-12-19T17:49:52.890Z,46.47
2022-12-19T17:52:57.078Z,43.83
2022-12-19T17:56:00.089Z,46.30
2022-12-19T17:59:03.062Z,45.03
2022-12-19T18:02:13.814Z,45.17
2022-12-19T18:05:21.950Z,46.10
2022-12-19T18:08:27.964Z,52.27
2022-12-19T18:11:35.525Z,48.83
2022-12-19T18:14:42.968Z,50.33
2022-12-19T18:17:47.900Z,51.87
2022-12-19T18:20:52.335Z,50.47
2022-12-19T18:23:55.242Z,48.57
2022-12-19T18:26:58.208Z,51.37
2022-12-19T18:30:01.124Z,47.23
2022-12-19T18:33:05.676Z,47.93
2022-12-19T18:36:18.190Z,52.00
2022-12-19T18:39:23.665Z,52.53
2022-12-19T18:42:27.046Z,48.70
2022-12-19T18:45:35.983Z,45.53
2022-12-19T18:48:39.075Z,46.10
2022-12-19T18:51:44.514Z,45.93
2022-12-19T18:54:47.443Z,48.43
2022-12-19T18:57:52.081Z,46.10
2022-12-19T19:00:59.414Z,47.07
2022-12-19T19:04:02.866Z,41.83
2022-12-19T19:07:07.260Z,44.97
2022-12-19T19:10:23.734Z,43.50
2022-12-19T19:13:28.390Z,50.33
2022-12-19T19:16:31.458Z,49.27
2022-12-19T19:19:34.611Z,41.10
2022-12-19T19:22:39.051Z,46.03
2022-12-19T19:25:42.138Z,47.47
2022-12-19T19:28:51.749Z,42.10
2022-12-19T19:31:55.393Z,39.70
2022-12-19T19:34:59.552Z,44.47
2022-12-19T19:38:07.382Z,39.57
2022-12-19T19:41:10.375Z,37.00
2022-12-19T19:44:13.340Z,35.17
2022-12-19T19:47:16.396Z,41.23
2022-12-19T19:50:19.461Z,36.97
2022-12-19T19:53:23.977Z,38.43
2022-12-19T19:56:26.957Z,40.90
2022-12-19T19:59:31.198Z,37.07
2022-12-19T20:02:34.300Z,41.23
2022-12-19T20:05:37.303Z,38.23
2022-12-19T20:08:41.592Z,37.97
2022-12-19T20:11:44.951Z,42.07
2022-12-19T20:14:48.512Z,36.47
2022-12-19T20:17:52.886Z,35.63
2022-12-19T20:20:55.899Z,37.57
2022-12-19T20:24:00.500Z,33.03
2022-12-19T20:27:03.453Z,32.83
2022-12-19T20:30:07.787Z,35.40
2022-12-19T20:33:10.953Z,36.33
2022-12-19T20:36:14.602Z,33.73
2022-12-19T20:39:22.060Z,33.47
2022-12-19T20:42:25.071Z,30.30
2022-12-19T20:45:28.003Z,35.03
2022-12-19T20:48:30.939Z,30.70
2022-12-19T20:51:33.854Z,35.33
2022-12-19T20:54:38.347Z,33.43
2022-12-19T20:57:41.292Z,37.00
2022-12-19T21:00:44.171Z,33.13
2022-12-19T21:03:48.533Z,33.97
2022-12-19T21:06:51.916Z,33.80
2022-12-19T21:09:57.816Z,29.60
2022-12-19T21:13:00.833Z,25.50
2022-12-19T21:16:06.975Z,30.43
2022-12-19T21:19:10.043Z,28.63
2022-12-19T21:22:13.016Z,31.70
2022-12-19T21:25:17.852Z,30.63
2022-12-19T21:28:21.328Z,32.33
2022-12-19T21:31:26.788Z,35.13
2022-12-19T21:34:29.784Z,32.33
2022-12-19T21:37:37.155Z,29.73
2022-12-19T21:40:45.934Z,33.93
2022-12-19T21:43:51.660Z,35.00
2022-12-19T21:46:54.639Z,33.63
2022-12-19T21:49:57.609Z,30.80
2022-12-19T21:53:01.069Z,31.80
2022-12-19T21:56:07.893Z,33.43
2022-12-19T21:59:13.825Z,29.67
2022-12-19T22:02:16.856Z,33.33
2022-12-19T22:05:19.882Z,32.77
2022-12-19T22:08:22.757Z,28.87
2022-12-19T22:11:28.035Z,32.33
2022-12-19T22:14:31.000Z,28.73
2022-12-19T22:17:35.070Z,28.67
2022-12-19T22:20:42.220Z,33.03
2022-12-19T22:23:46.225Z,31.17
2022-12-19T22:26:50.516Z,31.33
2022-12-19T22:29:53.474Z,31.67
2022-12-19T22:32:56.406Z,31.73
2022-12-19T22:36:05.291Z,28.83
2022-12-19T22:39:11.597Z,30.43
2022-12-19T22:42:16.183Z,31.20
2022-12-19T22:45:19.375Z,31.43
2022-12-19T22:48:24.437Z,29.50
2022-12-19T22:51:28.613Z,31.00
2022-12-19T22:54:31.553Z,27.07
2022-12-19T22:57:35.873Z,29.23
2022-12-19T23:00:39.294Z,30.87
2022-12-19T23:03:42.452Z,27.90
2022-12-19T23:06:45.918Z,34.80
2022-12-19T23:09:48.862Z,27.33
2022-12-19T23:12:53.135Z,30.13
2022-12-19T23:15:57.331Z,28.53
2022-12-19T23:19:00.381Z,28.13
2022-12-19T23:22:03.334Z,29.50
2022-12-19T23:25:07.651Z,25.73
2022-12-19T23:28:11.959Z,28.77
2022-12-19T23:31:14.934Z,26.20
2022-12-19T23:34:18.572Z,27.60
2022-12-19T23:37:21.472Z,27.47
2022-12-19T23:40:24.415Z,27.10
2022-12-19T23:43:29.125Z,28.40
2022-12-19T23:46:32.186Z,26.33
2022-12-19T23:49:35.219Z,31.63
2022-12-19T23:52:38.206Z,23.87
2022-12-19T23:55:41.140Z,25.93
2022-12-19T23:58:46.143Z,28.20
